createdAt,value
2023-03-29T00:00:14.648Z,44.0782
2023-03-29T00:01:35.051Z,44.0799
2023-03-29T00:02:17.918Z,44.0833
2023-03-29T00:03:19.729Z,44.0368
2023-03-29T00:04:21.226Z,43.9871
2023-03-29T00:05:22.853Z,43.9953
2023-03-29T00:06:24.532Z,44.0807
2023-03-29T00:07:26.183Z,44.1232
2023-03-29T00:08:27.836Z,44.1404
2023-03-29T00:09:29.484Z,44.0316
2023-03-29T00:10:31.120Z,44.0081
2023-03-29T00:11:32.800Z,44.0067
2023-03-29T00:12:34.428Z,44.1136
2023-03-29T00:13:36.128Z,44.0913
2023-03-29T00:14:37.734Z,44.0597
2023-03-29T00:15:39.405Z,44.0831
2023-03-29T00:16:41.071Z,44.0434
2023-03-29T00:17:42.767Z,44.0353
2023-03-29T00:18:44.385Z,44.0844
2023-03-29T00:19:46.023Z,44.0898
2023-03-29T00:20:47.666Z,44.1172
2023-03-29T00:21:49.322Z,44.1660
2023-03-29T00:22:50.967Z,44.1890
2023-03-29T00:23:52.670Z,44.1651
2023-03-29T00:24:54.319Z,44.1634
2023-03-29T00:25:55.957Z,44.0988
2023-03-29T00:26:57.610Z,43.9948
2023-03-29T00:27:59.268Z,44.0274
2023-03-29T00:29:00.943Z,43.8875
2023-03-29T00:30:02.570Z,43.8315
2023-03-29T00:31:04.430Z,43.8741
2023-03-29T00:32:05.877Z,43.9104
2023-03-29T00:33:07.554Z,43.7785
2023-03-29T00:34:09.199Z,43.7893
2023-03-29T00:35:10.825Z,43.8913
2023-03-29T00:36:12.497Z,43.8858
2023-03-29T00:37:14.112Z,43.7934
2023-03-29T00:38:15.798Z,43.8348
2023-03-29T00:39:17.449Z,43.7895
2023-03-29T00:40:19.099Z,43.7170
2023-03-29T00:41:20.734Z,43.7582
2023-03-29T00:42:22.407Z,43.7644
2023-03-29T00:43:24.041Z,43.7119
2023-03-29T00:44:25.744Z,43.6955
2023-03-29T00:45:27.354Z,43.6604
2023-03-29T00:46:29.108Z,43.6926
2023-03-29T00:47:30.671Z,43.6825
2023-03-29T00:48:32.383Z,43.6900
2023-03-29T00:49:33.994Z,43.7206
2023-03-29T00:50:35.647Z,43.7158
2023-03-29T00:51:37.291Z,43.6794
2023-03-29T00:52:38.950Z,43.6635
2023-03-29T00:53:40.580Z,43.7382
2023-03-29T00:54:42.294Z,43.7900
2023-03-29T00:55:43.895Z,43.7333
2023-03-29T00:56:45.578Z,43.7792
2023-03-29T00:57:47.200Z,43.7315
2023-03-29T00:58:48.871Z,43.8065
2023-03-29T00:59:50.579Z,43.7957
2023-03-29T01:00:52.206Z,43.7172
2023-03-29T01:01:53.871Z,43.6868
2023-03-29T01:02:55.538Z,43.6910
2023-03-29T01:03:57.154Z,43.6889
2023-03-29T01:04:58.817Z,43.7185
2023-03-29T01:06:00.462Z,43.7541
2023-03-29T01:07:02.159Z,43.6544
2023-03-29T01:08:03.757Z,43.6874
2023-03-29T01:09:05.419Z,43.6833
2023-03-29T01:10:07.085Z,43.7118
2023-03-29T01:11:08.735Z,43.7097
2023-03-29T01:12:10.388Z,43.6760
2023-03-29T01:13:12.043Z,43.6693
2023-03-29T01:14:13.684Z,43.6932
2023-03-29T01:15:15.398Z,43.7057
2023-03-29T01:16:17.094Z,43.6890
2023-03-29T01:17:18.683Z,43.7109
2023-03-29T01:18:20.307Z,43.7258
2023-03-29T01:19:21.977Z,43.7871
2023-03-29T01:20:23.635Z,43.7967
2023-03-29T01:21:25.285Z,43.7467
2023-03-29T01:22:26.931Z,43.7577
2023-03-29T01:23:28.599Z,43.7505
2023-03-29T01:24:30.225Z,43.7649
2023-03-29T01:25:31.918Z,43.8401
2023-03-29T01:26:33.540Z,43.8507
2023-03-29T01:27:35.208Z,43.8307
2023-03-29T01:28:36.847Z,43.7540
2023-03-29T01:29:38.507Z,43.7464
2023-03-29T01:30:40.173Z,43.7402
2023-03-29T01:31:41.902Z,43.7829
2023-03-29T01:32:43.450Z,43.7531
2023-03-29T01:33:45.142Z,43.7284
2023-03-29T01:34:46.802Z,43.7231
2023-03-29T01:35:48.521Z,43.7085
2023-03-29T01:36:50.073Z,43.7322
2023-03-29T01:37:51.760Z,43.8258
2023-03-29T01:38:53.401Z,43.8773
2023-03-29T01:39:55.061Z,43.7817
2023-03-29T01:40:56.722Z,43.8139
2023-03-29T01:41:58.367Z,43.7473
2023-03-29T01:43:00.024Z,43.7856
2023-03-29T01:44:01.692Z,43.7577
2023-03-29T01:45:03.325Z,43.7413
2023-03-29T01:46:05.454Z,43.6547
2023-03-29T01:47:06.630Z,43.5828
2023-03-29T01:48:08.303Z,43.6052
2023-03-29T01:49:09.950Z,43.6058
2023-03-29T01:50:11.620Z,43.6719
2023-03-29T01:51:13.316Z,43.9082
2023-03-29T01:52:14.941Z,43.9902
2023-03-29T01:53:16.572Z,43.9900
2023-03-29T01:54:18.245Z,44.0766
2023-03-29T01:55:19.879Z,44.1731
2023-03-29T01:56:21.571Z,44.2576
2023-03-29T01:57:23.276Z,44.3111
2023-03-29T01:58:24.861Z,44.4824
2023-03-29T01:59:26.500Z,44.5831
2023-03-29T02:00:28.152Z,44.6688
2023-03-29T02:01:29.841Z,44.7257
2023-03-29T02:02:31.560Z,44.7648
2023-03-29T02:03:33.199Z,44.8345
2023-03-29T02:04:34.796Z,44.8342
2023-03-29T02:05:36.409Z,44.8687
2023-03-29T02:06:38.100Z,44.8659
2023-03-29T02:07:39.713Z,44.9109
2023-03-29T02:08:41.386Z,44.9138
2023-03-29T02:09:43.022Z,44.9277
2023-03-29T02:10:44.692Z,44.9729
2023-03-29T02:11:46.353Z,45.0364
2023-03-29T02:12:48.001Z,45.0587
2023-03-29T02:13:49.641Z,45.1253
2023-03-29T02:14:51.304Z,45.0796
2023-03-29T02:15:53.117Z,45.0935
2023-03-29T02:16:54.633Z,45.2043
2023-03-29T02:17:56.262Z,45.1970
2023-03-29T02:18:57.933Z,45.1459
2023-03-29T02:19:59.549Z,45.1106
2023-03-29T02:21:01.441Z,45.1768
2023-03-29T02:22:02.892Z,45.1708
2023-03-29T02:23:04.537Z,45.1719
2023-03-29T02:24:06.156Z,45.1322
2023-03-29T02:25:07.841Z,45.2020
2023-03-29T02:26:09.460Z,45.1625
2023-03-29T02:27:11.178Z,45.1767
2023-03-29T02:28:12.781Z,45.2229
2023-03-29T02:29:14.446Z,45.1394
2023-03-29T02:30:16.083Z,45.1172
2023-03-29T02:31:17.788Z,45.1104
2023-03-29T02:32:19.405Z,45.1526
2023-03-29T02:33:21.048Z,45.1394
2023-03-29T02:34:22.756Z,45.0944
2023-03-29T02:35:24.359Z,45.1114
2023-03-29T02:36:25.987Z,45.1120
2023-03-29T02:37:27.686Z,45.1186
2023-03-29T02:38:29.303Z,45.1595
2023-03-29T02:39:30.972Z,45.0957
2023-03-29T02:40:32.609Z,45.0629
2023-03-29T02:41:34.262Z,45.0607
2023-03-29T02:42:35.949Z,45.0838
2023-03-29T02:43:37.572Z,45.1288
2023-03-29T02:44:39.278Z,45.1455
2023-03-29T02:45:40.936Z,45.1547
2023-03-29T02:46:42.691Z,45.1411
2023-03-29T02:47:44.364Z,45.1018
2023-03-29T02:48:45.887Z,45.1135
2023-03-29T02:49:50.343Z,45.1044
2023-03-29T02:50:49.215Z,45.1348
2023-03-29T02:51:50.844Z,45.0803
2023-03-29T02:52:52.562Z,45.0802
2023-03-29T02:53:54.148Z,45.0297
2023-03-29T02:54:55.829Z,45.0620
2023-03-29T02:55:57.449Z,45.0618
2023-03-29T02:56:59.160Z,45.0751
2023-03-29T02:58:00.780Z,45.0335
2023-03-29T02:59:02.433Z,45.0342
2023-03-29T03:00:04.075Z,45.0064
2023-03-29T03:01:05.730Z,44.9933
2023-03-29T03:02:07.435Z,44.9993
2023-03-29T03:03:09.214Z,45.0291
2023-03-29T03:04:10.749Z,44.9679
2023-03-29T03:05:12.352Z,44.9689
2023-03-29T03:06:14.931Z,45.0106
2023-03-29T03:07:15.663Z,44.9524
2023-03-29T03:08:17.304Z,45.0296
2023-03-29T03:09:18.949Z,45.0683
2023-03-29T03:10:20.601Z,44.9883
2023-03-29T03:11:22.260Z,44.9636
2023-03-29T03:12:23.902Z,44.9608
2023-03-29T03:13:25.590Z,44.9561
2023-03-29T03:14:27.209Z,44.9485
2023-03-29T03:15:28.875Z,44.9771
2023-03-29T03:16:30.588Z,45.0144
2023-03-29T03:17:32.195Z,45.0032
2023-03-29T03:18:33.998Z,44.9847
2023-03-29T03:19:35.485Z,44.9591
2023-03-29T03:20:37.095Z,44.9236
2023-03-29T03:21:38.786Z,44.9420
2023-03-29T03:22:40.420Z,44.9359
2023-03-29T03:23:42.123Z,44.9839
2023-03-29T03:24:43.704Z,44.9497
2023-03-29T03:25:45.366Z,44.8981
2023-03-29T03:26:47.016Z,44.9136
2023-03-29T03:27:48.691Z,44.9204
2023-03-29T03:28:50.351Z,44.9688
2023-03-29T03:29:51.982Z,44.9066
2023-03-29T03:30:53.640Z,44.9643
2023-03-29T03:31:55.310Z,44.9690
2023-03-29T03:32:56.953Z,44.9215
2023-03-29T03:33:58.594Z,44.9437
2023-03-29T03:35:00.216Z,44.9247
2023-03-29T03:36:01.983Z,44.9543
2023-03-29T03:37:03.522Z,44.9775
2023-03-29T03:38:05.195Z,44.9383
2023-03-29T03:39:06.841Z,45.0052
2023-03-29T03:40:08.495Z,45.0232
2023-03-29T03:41:10.133Z,44.9696
2023-03-29T03:42:11.804Z,44.9796
2023-03-29T03:43:13.434Z,44.9410
2023-03-29T03:44:15.134Z,44.9179
2023-03-29T03:45:16.745Z,44.8970
2023-03-29T03:46:18.500Z,44.9021
2023-03-29T03:47:20.046Z,44.9014
2023-03-29T03:48:21.726Z,44.9416
2023-03-29T03:49:23.408Z,44.9119
2023-03-29T03:50:25.024Z,44.9693
2023-03-29T03:51:26.666Z,44.9074
2023-03-29T03:52:28.336Z,44.9023
2023-03-29T03:53:29.973Z,44.9390
2023-03-29T03:54:31.664Z,44.9815
2023-03-29T03:55:33.309Z,44.9520
2023-03-29T03:56:34.964Z,44.9597
2023-03-29T03:57:36.584Z,44.9255
2023-03-29T03:58:38.254Z,45.0080
2023-03-29T03:59:39.919Z,44.9991
2023-03-29T04:00:41.563Z,44.9615
2023-03-29T04:01:43.208Z,45.0337
2023-03-29T04:02:44.904Z,45.1511
2023-03-29T04:03:46.543Z,45.0709
2023-03-29T04:04:48.188Z,45.1477
2023-03-29T04:05:49.812Z,45.0857
2023-03-29T04:06:51.497Z,45.0182
2023-03-29T04:07:53.121Z,44.9548
2023-03-29T04:08:54.792Z,44.9168
2023-03-29T04:09:56.462Z,44.9762
2023-03-29T04:10:58.107Z,44.9510
2023-03-29T04:11:59.745Z,44.9210
2023-03-29T04:13:01.462Z,44.9327
2023-03-29T04:14:03.056Z,44.9685
2023-03-29T04:15:04.748Z,44.9693
2023-03-29T04:16:06.392Z,44.9508
2023-03-29T04:17:08.052Z,45.0140
2023-03-29T04:18:09.757Z,45.0156
2023-03-29T04:19:11.349Z,44.9836
2023-03-29T04:20:13.015Z,44.9705
2023-03-29T04:21:14.648Z,44.9836
2023-03-29T04:22:16.284Z,44.9997
2023-03-29T04:23:17.975Z,45.0511
2023-03-29T04:24:19.604Z,45.1640
2023-03-29T04:25:21.294Z,45.0769
2023-03-29T04:26:22.915Z,45.0422
2023-03-29T04:27:24.565Z,45.1679
2023-03-29T04:28:26.253Z,45.1553
2023-03-29T04:29:27.853Z,44.9844
2023-03-29T04:30:29.546Z,45.1401
2023-03-29T04:31:31.272Z,45.2526
2023-03-29T04:32:32.855Z,45.2200
2023-03-29T04:33:34.472Z,45.1386
2023-03-29T04:34:36.140Z,45.1162
2023-03-29T04:35:37.851Z,45.2092
2023-03-29T04:36:39.453Z,45.1505
2023-03-29T04:37:41.078Z,45.2834
2023-03-29T04:38:46.097Z,45.2835
2023-03-29T04:39:44.380Z,45.2422
2023-03-29T04:40:46.072Z,45.3400
2023-03-29T04:41:47.687Z,45.1557
2023-03-29T04:42:49.365Z,45.1539
2023-03-29T04:43:51.000Z,45.2911
2023-03-29T04:44:52.698Z,44.6392
2023-03-29T04:45:54.379Z,37.0639
2023-03-29T04:46:55.992Z,35.2250
2023-03-29T04:47:57.663Z,34.1207
2023-03-29T04:48:59.317Z,33.6781
2023-03-29T04:50:00.912Z,33.7281
2023-03-29T04:51:02.777Z,34.3225
2023-03-29T04:52:04.226Z,35.1624
2023-03-29T04:53:05.896Z,35.0570
2023-03-29T04:54:07.530Z,35.2935
2023-03-29T04:55:09.232Z,35.6818
2023-03-29T04:56:10.858Z,36.0175
2023-03-29T04:57:12.559Z,37.3560
2023-03-29T04:58:14.121Z,38.7099
2023-03-29T04:59:15.795Z,40.4155
2023-03-29T05:00:17.463Z,41.2923
2023-03-29T05:01:19.171Z,40.2572
2023-03-29T05:02:20.736Z,39.8521
2023-03-29T05:03:22.418Z,40.0303
2023-03-29T05:04:24.065Z,40.0701
2023-03-29T05:05:25.732Z,40.5614
2023-03-29T05:06:27.376Z,40.1641
2023-03-29T05:07:29.085Z,40.7120
2023-03-29T05:08:30.664Z,40.8452
2023-03-29T05:09:35.037Z,40.8127
2023-03-29T05:10:33.977Z,40.3843
2023-03-29T05:11:35.678Z,39.9800
2023-03-29T05:12:37.285Z,40.0844
2023-03-29T05:13:38.937Z,40.7903
2023-03-29T05:14:40.589Z,41.5071
2023-03-29T05:15:42.267Z,41.2776
2023-03-29T05:16:43.999Z,40.7040
2023-03-29T05:17:45.576Z,41.0104
2023-03-29T05:18:47.214Z,40.7595
2023-03-29T05:19:48.883Z,40.8707
2023-03-29T05:20:50.535Z,41.2419
2023-03-29T05:21:52.219Z,41.3409
2023-03-29T05:22:53.858Z,41.4659
2023-03-29T05:23:55.503Z,41.7009
2023-03-29T05:24:57.135Z,42.2897
2023-03-29T05:25:58.808Z,42.4132
2023-03-29T05:27:00.468Z,42.3484
2023-03-29T05:28:02.112Z,42.5303
2023-03-29T05:29:03.749Z,42.7581
2023-03-29T05:30:05.422Z,42.9607
2023-03-29T05:31:07.068Z,43.1080
2023-03-29T05:32:08.857Z,43.0668
2023-03-29T05:33:10.405Z,42.9546
2023-03-29T05:34:12.032Z,43.0098
2023-03-29T05:35:13.661Z,43.1308
2023-03-29T05:36:15.408Z,42.9999
2023-03-29T05:37:17.024Z,43.1202
2023-03-29T05:38:18.648Z,43.2958
2023-03-29T05:39:20.283Z,43.3110
2023-03-29T05:40:21.966Z,43.3390
2023-03-29T05:41:23.622Z,43.9192
2023-03-29T05:42:25.283Z,44.2271
2023-03-29T05:43:26.898Z,44.4170
2023-03-29T05:44:28.581Z,44.2152
2023-03-29T05:45:30.276Z,43.1842
2023-03-29T05:46:31.896Z,42.9761
2023-03-29T05:47:33.637Z,42.7256
2023-03-29T05:48:35.303Z,42.4481
2023-03-29T05:49:36.852Z,42.6156
2023-03-29T05:50:38.476Z,42.6983
2023-03-29T05:51:40.145Z,42.7656
2023-03-29T05:52:41.810Z,42.9120
2023-03-29T05:53:43.466Z,43.0249
2023-03-29T05:54:45.135Z,43.2414
2023-03-29T05:55:46.782Z,43.5030
2023-03-29T05:56:48.456Z,43.6550
2023-03-29T05:57:50.106Z,43.7889
2023-03-29T05:58:53.657Z,43.8790
2023-03-29T05:59:53.411Z,43.8900
2023-03-29T06:00:55.010Z,43.9747
2023-03-29T06:01:56.734Z,44.0235
2023-03-29T06:03:03.780Z,44.0495
2023-03-29T06:04:00.102Z,43.9986
2023-03-29T06:05:01.657Z,43.9068
2023-03-29T06:06:03.310Z,44.1260
2023-03-29T06:07:04.934Z,44.3196
2023-03-29T06:08:06.631Z,44.4424
2023-03-29T06:09:08.250Z,44.4781
2023-03-29T06:10:09.918Z,42.6521
2023-03-29T06:11:11.543Z,35.1818
2023-03-29T06:12:13.216Z,33.9294
2023-03-29T06:13:14.878Z,33.8748
2023-03-29T06:14:16.516Z,33.7545
2023-03-29T06:15:18.156Z,33.2543
2023-03-29T06:16:19.839Z,33.2250
2023-03-29T06:17:21.457Z,33.2343
2023-03-29T06:18:23.180Z,33.9820
2023-03-29T06:19:24.764Z,35.4710
2023-03-29T06:20:26.447Z,34.9536
2023-03-29T06:21:28.063Z,35.2224
2023-03-29T06:22:29.754Z,35.2747
2023-03-29T06:23:31.411Z,35.5008
2023-03-29T06:24:33.044Z,35.0562
2023-03-29T06:25:34.699Z,35.5602
2023-03-29T06:26:36.349Z,36.1239
2023-03-29T06:27:38.008Z,36.3753
2023-03-29T06:28:39.702Z,36.2641
2023-03-29T06:29:41.298Z,37.0616
2023-03-29T06:30:42.962Z,37.2907
2023-03-29T06:31:44.668Z,37.5796
2023-03-29T06:32:46.332Z,38.3413
2023-03-29T06:33:47.931Z,38.5324
2023-03-29T06:34:49.600Z,38.9597
2023-03-29T06:35:51.305Z,39.2158
2023-03-29T06:36:52.888Z,39.4008
2023-03-29T06:37:54.562Z,39.4891
2023-03-29T06:38:56.240Z,39.6625
2023-03-29T06:39:57.841Z,39.8188
2023-03-29T06:40:59.610Z,39.8215
2023-03-29T06:42:10.057Z,40.0460
2023-03-29T06:43:02.804Z,39.9584
2023-03-29T06:44:04.450Z,39.7836
2023-03-29T06:45:06.138Z,39.8890
2023-03-29T06:46:07.790Z,40.0275
2023-03-29T06:47:09.528Z,40.1109
2023-03-29T06:48:11.171Z,40.2382
2023-03-29T06:49:12.869Z,40.1316
2023-03-29T06:50:14.445Z,40.0372
2023-03-29T06:51:16.118Z,40.1808
2023-03-29T06:52:17.744Z,40.2073
2023-03-29T06:53:19.415Z,40.0579
2023-03-29T06:54:21.142Z,40.2933
2023-03-29T06:55:22.721Z,40.6198
2023-03-29T06:56:24.370Z,41.2185
2023-03-29T06:57:26.177Z,41.6538
2023-03-29T06:58:27.662Z,41.2840
2023-03-29T06:59:29.368Z,41.1910
2023-03-29T07:00:30.988Z,41.3439
2023-03-29T07:01:32.651Z,41.5811
2023-03-29T07:02:34.285Z,41.9155
2023-03-29T07:03:35.959Z,41.9910
2023-03-29T07:04:37.670Z,42.0973
2023-03-29T07:05:39.311Z,42.1696
2023-03-29T07:06:40.889Z,42.1312
2023-03-29T07:07:42.559Z,42.2082
2023-03-29T07:08:44.202Z,42.2048
2023-03-29T07:09:45.880Z,42.2435
2023-03-29T07:10:47.602Z,42.2885
2023-03-29T07:11:49.168Z,42.2593
2023-03-29T07:12:50.796Z,42.3012
2023-03-29T07:13:52.490Z,42.4093
2023-03-29T07:14:54.147Z,42.3504
2023-03-29T07:15:55.838Z,42.4290
2023-03-29T07:16:57.445Z,42.5292
2023-03-29T07:17:59.181Z,42.5305
2023-03-29T07:19:00.738Z,42.4906
2023-03-29T07:20:02.499Z,42.6174
2023-03-29T07:21:04.154Z,42.6802
2023-03-29T07:22:05.708Z,42.6264
2023-03-29T07:23:07.370Z,42.3761
2023-03-29T07:24:09.007Z,42.4409
2023-03-29T07:25:10.693Z,42.5622
2023-03-29T07:26:12.323Z,42.8547
2023-03-29T07:27:13.977Z,42.5646
2023-03-29T07:28:15.670Z,42.5169
2023-03-29T07:29:17.288Z,42.7285
2023-03-29T07:30:18.942Z,42.7972
2023-03-29T07:31:20.558Z,42.8721
2023-03-29T07:32:22.497Z,43.0675
2023-03-29T07:33:23.998Z,43.1968
2023-03-29T07:34:25.540Z,43.3224
2023-03-29T07:35:27.189Z,43.2734
2023-03-29T07:36:28.870Z,43.1382
2023-03-29T07:37:30.493Z,43.2090
2023-03-29T07:38:32.179Z,43.3221
2023-03-29T07:39:33.797Z,43.3209
2023-03-29T07:40:35.476Z,43.3714
2023-03-29T07:41:37.099Z,43.4741
2023-03-29T07:42:38.792Z,43.4646
2023-03-29T07:43:40.422Z,43.5041
2023-03-29T07:44:42.097Z,43.4060
2023-03-29T07:45:43.743Z,43.4626
2023-03-29T07:46:45.412Z,43.6285
2023-03-29T07:47:47.032Z,43.6701
2023-03-29T07:48:48.696Z,43.6604
2023-03-29T07:49:50.330Z,43.6159
2023-03-29T07:50:52.048Z,43.6261
2023-03-29T07:51:53.635Z,43.6625
2023-03-29T07:52:55.286Z,43.6390
2023-03-29T07:53:56.958Z,43.6059
2023-03-29T07:54:58.589Z,43.6839
2023-03-29T07:56:00.270Z,43.7430
2023-03-29T07:57:01.978Z,43.7123
2023-03-29T07:58:03.548Z,43.7277
2023-03-29T07:59:05.221Z,43.7293
2023-03-29T08:00:06.856Z,43.7591
2023-03-29T08:01:08.639Z,43.8006
2023-03-29T08:02:10.161Z,43.8146
2023-03-29T08:03:11.895Z,43.7583
2023-03-29T08:04:13.534Z,43.7002
2023-03-29T08:05:17.476Z,43.7406
2023-03-29T08:06:16.838Z,43.6873
2023-03-29T08:07:18.967Z,43.7105
2023-03-29T08:08:20.078Z,43.7691
2023-03-29T08:09:21.766Z,43.7230
2023-03-29T08:10:23.384Z,43.6962
2023-03-29T08:11:25.074Z,43.6853
2023-03-29T08:12:26.700Z,43.7094
2023-03-29T08:13:28.362Z,43.7410
2023-03-29T08:14:30.009Z,43.8129
2023-03-29T08:15:31.667Z,43.8319
2023-03-29T08:16:33.406Z,43.9399
2023-03-29T08:17:35.082Z,43.9551
2023-03-29T08:18:36.737Z,43.8724
2023-03-29T08:19:38.290Z,43.8341
2023-03-29T08:20:39.919Z,43.8367
2023-03-29T08:21:41.619Z,43.9351
2023-03-29T08:22:43.228Z,44.0863
2023-03-29T08:23:44.918Z,44.0384
2023-03-29T08:24:46.547Z,43.9930
2023-03-29T08:25:48.247Z,44.0486
2023-03-29T08:26:49.883Z,43.9995
2023-03-29T08:27:51.520Z,44.0181
2023-03-29T08:28:53.157Z,44.1002
2023-03-29T08:29:54.836Z,44.1415
2023-03-29T08:30:56.485Z,44.0961
2023-03-29T08:31:58.159Z,44.0913
2023-03-29T08:32:59.787Z,44.1753
2023-03-29T08:34:01.437Z,44.2240
2023-03-29T08:35:03.078Z,44.2170
2023-03-29T08:36:04.780Z,44.2277
2023-03-29T08:37:06.414Z,44.2339
2023-03-29T08:38:08.067Z,44.2138
2023-03-29T08:39:09.686Z,44.1549
2023-03-29T08:40:11.363Z,44.2530
2023-03-29T08:41:13.000Z,44.5419
2023-03-29T08:42:14.689Z,44.9071
2023-03-29T08:43:16.287Z,44.8341
2023-03-29T08:44:17.974Z,42.3826
2023-03-29T08:45:19.646Z,42.9660
2023-03-29T08:46:21.346Z,44.2469
2023-03-29T08:47:22.933Z,44.2348
2023-03-29T08:48:24.573Z,44.2533
2023-03-29T08:49:26.251Z,44.3880
2023-03-29T08:50:27.888Z,44.4504
2023-03-29T08:51:29.532Z,44.4428
2023-03-29T08:52:31.290Z,44.3708
2023-03-29T08:53:32.858Z,44.4299
2023-03-29T08:54:34.517Z,44.5080
2023-03-29T08:55:36.145Z,44.5563
2023-03-29T08:56:37.835Z,44.7033
2023-03-29T08:57:39.559Z,44.9782
2023-03-29T08:58:41.134Z,44.9762
2023-03-29T08:59:42.743Z,44.9574
2023-03-29T09:00:44.431Z,44.9435
2023-03-29T09:01:48.447Z,44.9258
2023-03-29T09:02:47.829Z,44.9098
2023-03-29T09:03:49.473Z,44.8758
2023-03-29T09:04:51.013Z,44.8863
2023-03-29T09:05:52.649Z,44.8275
2023-03-29T09:06:54.339Z,44.8636
2023-03-29T09:07:55.976Z,44.8262
2023-03-29T09:08:57.633Z,44.8591
2023-03-29T09:09:59.263Z,44.9777
2023-03-29T09:11:01.091Z,44.9810
2023-03-29T09:12:02.570Z,44.9947
2023-03-29T09:13:04.299Z,45.0293
2023-03-29T09:14:05.879Z,45.1107
2023-03-29T09:15:07.549Z,45.2564
2023-03-29T09:16:09.173Z,45.2864
2023-03-29T09:17:10.868Z,45.2549
2023-03-29T09:18:12.556Z,45.3019
2023-03-29T09:19:14.172Z,45.3209
2023-03-29T09:20:15.802Z,45.3434
2023-03-29T09:21:17.462Z,45.3515
2023-03-29T09:22:20.078Z,45.4212
2023-03-29T09:23:20.793Z,45.4901
2023-03-29T09:24:22.423Z,45.5383
2023-03-29T09:25:24.097Z,45.5690
2023-03-29T09:26:25.740Z,45.5776
2023-03-29T09:27:27.393Z,45.6187
2023-03-29T09:28:29.049Z,45.6700
2023-03-29T09:29:30.703Z,45.6710
2023-03-29T09:30:32.360Z,45.6260
2023-03-29T09:31:34.042Z,45.5785
2023-03-29T09:32:35.706Z,45.6070
2023-03-29T09:33:37.406Z,45.6177
2023-03-29T09:34:38.970Z,45.6307
2023-03-29T09:35:40.640Z,45.5928
2023-03-29T09:36:42.269Z,45.6149
2023-03-29T09:37:43.934Z,45.6395
2023-03-29T09:38:45.604Z,45.6335
2023-03-29T09:39:47.267Z,45.6241
2023-03-29T09:40:48.900Z,45.6230
2023-03-29T09:41:50.545Z,45.5971
2023-03-29T09:42:52.331Z,45.5913
2023-03-29T09:43:53.896Z,45.5894
2023-03-29T09:44:55.489Z,45.5832
2023-03-29T09:45:57.238Z,45.6180
2023-03-29T09:46:58.857Z,45.6393
2023-03-29T09:48:00.572Z,45.6219
2023-03-29T09:49:02.169Z,45.6454
2023-03-29T09:50:03.799Z,45.6435
2023-03-29T09:51:05.431Z,45.6291
2023-03-29T09:52:07.075Z,45.6237
2023-03-29T09:53:08.726Z,45.6242
2023-03-29T09:54:10.436Z,45.6355
2023-03-29T09:55:12.030Z,45.6670
2023-03-29T09:56:13.699Z,45.6465
2023-03-29T09:57:15.415Z,45.6670
2023-03-29T09:58:17.026Z,45.6853
2023-03-29T09:59:18.691Z,45.6733
2023-03-29T10:00:20.313Z,45.6766
2023-03-29T10:01:21.949Z,45.6982
2023-03-29T10:02:23.628Z,45.6985
2023-03-29T10:03:25.241Z,45.7051
2023-03-29T10:04:26.992Z,45.8375
2023-03-29T10:05:28.548Z,45.9460
2023-03-29T10:06:30.215Z,46.0684
2023-03-29T10:07:31.852Z,46.3381
2023-03-29T10:08:33.578Z,46.2763
2023-03-29T10:09:35.200Z,46.4001
2023-03-29T10:10:36.889Z,46.6660
2023-03-29T10:11:38.498Z,46.8277
2023-03-29T10:12:40.138Z,46.8552
2023-03-29T10:13:41.777Z,46.6880
2023-03-29T10:14:43.468Z,46.5175
2023-03-29T10:15:45.103Z,46.6519
2023-03-29T10:16:46.874Z,46.6256
2023-03-29T10:17:48.467Z,46.6630
2023-03-29T10:18:50.061Z,46.7401
2023-03-29T10:19:51.741Z,46.9451
2023-03-29T10:20:53.384Z,47.0778
2023-03-29T10:21:55.023Z,46.9295
2023-03-29T10:22:56.674Z,46.7062
2023-03-29T10:23:58.304Z,46.8213
2023-03-29T10:25:00.031Z,46.8325
2023-03-29T10:26:01.625Z,46.6919
2023-03-29T10:27:03.290Z,46.6670
2023-03-29T10:28:04.935Z,47.0978
2023-03-29T10:29:06.594Z,49.0372
2023-03-29T10:30:08.253Z,49.5109
2023-03-29T10:31:09.928Z,48.9042
2023-03-29T10:32:11.574Z,48.3950
2023-03-29T10:33:13.219Z,47.9068
2023-03-29T10:34:14.830Z,47.9745
2023-03-29T10:35:16.536Z,49.6397
2023-03-29T10:36:18.156Z,49.0291
2023-03-29T10:37:19.818Z,48.5209
2023-03-29T10:38:21.486Z,48.1102
2023-03-29T10:39:23.112Z,48.5877
2023-03-29T10:40:24.787Z,50.1274
2023-03-29T10:41:26.414Z,51.6213
2023-03-29T10:42:28.047Z,51.2810
2023-03-29T10:43:29.799Z,49.7450
2023-03-29T10:44:33.174Z,48.9079
2023-03-29T10:45:33.073Z,48.8131
2023-03-29T10:46:34.789Z,47.6889
2023-03-29T10:47:36.361Z,47.7722
2023-03-29T10:48:38.023Z,41.2693
2023-03-29T10:49:39.656Z,45.9220
2023-03-29T10:50:41.367Z,46.6660
2023-03-29T10:51:43.018Z,47.9852
2023-03-29T10:52:44.650Z,48.5189
2023-03-29T10:53:46.325Z,48.1515
2023-03-29T10:54:47.956Z,47.2658
2023-03-29T10:55:49.657Z,47.0882
2023-03-29T10:56:52.558Z,47.3222
2023-03-29T10:57:52.925Z,47.0668
2023-03-29T10:58:54.574Z,47.6821
2023-03-29T10:59:56.218Z,47.3536
2023-03-29T11:00:57.875Z,47.7355
2023-03-29T11:01:59.561Z,48.4551
2023-03-29T11:03:01.217Z,48.6755
2023-03-29T11:04:02.909Z,49.0076
2023-03-29T11:05:04.441Z,50.8615
2023-03-29T11:06:06.141Z,51.3249
2023-03-29T11:07:07.751Z,49.2831
2023-03-29T11:08:09.439Z,49.7175
2023-03-29T11:09:11.054Z,51.1736
2023-03-29T11:10:12.738Z,50.0992
2023-03-29T11:11:14.406Z,49.1587
2023-03-29T11:12:16.659Z,50.0468
2023-03-29T11:13:17.694Z,49.9339
2023-03-29T11:14:19.331Z,49.6848
2023-03-29T11:15:20.950Z,49.9517
2023-03-29T11:16:22.906Z,50.6421
2023-03-29T11:17:24.275Z,50.0517
2023-03-29T11:18:25.929Z,49.8660
2023-03-29T11:19:27.574Z,49.6009
2023-03-29T11:20:29.241Z,49.2192
2023-03-29T11:21:30.897Z,49.0225
2023-03-29T11:22:32.560Z,48.8080
2023-03-29T11:23:34.196Z,48.6783
2023-03-29T11:24:35.875Z,48.6685
2023-03-29T11:25:37.478Z,48.7151
2023-03-29T11:26:39.203Z,48.6951
2023-03-29T11:27:40.787Z,48.7770
2023-03-29T11:28:42.468Z,48.7645
2023-03-29T11:29:44.126Z,48.7697
2023-03-29T11:30:45.798Z,48.7919
2023-03-29T11:31:47.508Z,48.7878
2023-03-29T11:32:49.086Z,48.7816
2023-03-29T11:33:50.713Z,48.7466
2023-03-29T11:34:52.384Z,48.7001
2023-03-29T11:35:54.064Z,48.7211
2023-03-29T11:36:55.727Z,48.7070
2023-03-29T11:37:57.313Z,48.6712
2023-03-29T11:38:58.968Z,48.6407
2023-03-29T11:40:00.611Z,48.6404
2023-03-29T11:41:02.596Z,48.6541
2023-03-29T11:42:03.935Z,48.6461
2023-03-29T11:43:05.576Z,48.6650
2023-03-29T11:44:07.236Z,48.6726
2023-03-29T11:45:08.874Z,48.6733
2023-03-29T11:46:10.523Z,48.6940
2023-03-29T11:47:12.233Z,48.6982
2023-03-29T11:48:13.821Z,48.7059
2023-03-29T11:49:15.489Z,48.7010
2023-03-29T11:50:17.142Z,48.7913
2023-03-29T11:51:18.791Z,49.8808
2023-03-29T11:52:20.468Z,50.8090
2023-03-29T11:53:22.080Z,50.8802
2023-03-29T11:54:23.758Z,51.2457
2023-03-29T11:55:25.398Z,51.9482
2023-03-29T11:56:27.042Z,53.1003
2023-03-29T11:57:28.861Z,52.2123
2023-03-29T11:58:30.344Z,51.8364
2023-03-29T11:59:31.992Z,51.4622
2023-03-29T12:00:33.659Z,51.1627
2023-03-29T12:01:35.299Z,50.7053
2023-03-29T12:02:37.105Z,51.0715
2023-03-29T12:03:38.797Z,48.7972
2023-03-29T12:04:40.297Z,42.9435
2023-03-29T12:05:41.894Z,39.9806
2023-03-29T12:06:43.578Z,38.9093
2023-03-29T12:07:45.237Z,38.4771
2023-03-29T12:08:46.900Z,37.9236
2023-03-29T12:09:48.516Z,37.9303
2023-03-29T12:10:50.192Z,37.7464
2023-03-29T12:11:51.827Z,37.8982
2023-03-29T12:12:53.548Z,37.6475
2023-03-29T12:13:55.148Z,37.5224
2023-03-29T12:14:57.125Z,37.3209
2023-03-29T12:15:58.454Z,37.2222
2023-03-29T12:17:00.158Z,37.6170
2023-03-29T12:18:01.801Z,37.4944
2023-03-29T12:19:03.411Z,37.3374
2023-03-29T12:20:05.077Z,36.7175
2023-03-29T12:21:06.877Z,36.5125
2023-03-29T12:22:08.363Z,36.4547
2023-03-29T12:23:10.071Z,36.7464
2023-03-29T12:24:11.688Z,36.6302
2023-03-29T12:25:14.312Z,36.8768